createdAt,value
2018-02-23T00:00:11.607Z,58.80
2018-02-23T00:02:38.506Z,66.15
2018-02-23T00:05:14.797Z,59.38
2018-02-23T00:07:46.515Z,66.10
2018-02-23T00:10:14.129Z,55.05
2018-02-23T00:12:41.010Z,67.70
2018-02-23T00:15:08.705Z,57.83
2018-02-23T00:17:35.533Z,49.83
2018-02-23T00:20:03.139Z,50.97
2018-02-23T00:22:40.060Z,57.78
2018-02-23T00:25:08.500Z,60.12
2018-02-23T00:27:35.377Z,53.53
2018-02-23T00:30:03.031Z,56.50
2018-02-23T00:32:29.894Z,52.65
2018-02-23T00:34:56.757Z,55.08
2018-02-23T00:37:23.598Z,59.25
2018-02-23T00:39:50.480Z,50.95
2018-02-23T00:42:19.889Z,52.58
2018-02-23T00:44:46.715Z,68.37
2018-02-23T00:47:13.599Z,55.70
2018-02-23T00:49:40.418Z,56.22
2018-02-23T00:52:07.267Z,48.70
2018-02-23T00:54:34.102Z,54.13
2018-02-23T00:57:00.957Z,60.35
2018-02-23T00:59:27.810Z,54.40
2018-02-23T01:01:54.637Z,53.15
2018-02-23T01:04:21.485Z,54.72
2018-02-23T01:06:48.374Z,63.35
2018-02-23T01:09:15.213Z,55.17
2018-02-23T01:11:42.092Z,55.85
2018-02-23T01:14:08.918Z,57.30
2018-02-23T01:16:35.847Z,54.35
2018-02-23T01:19:02.718Z,60.22
2018-02-23T01:21:29.554Z,66.43
2018-02-23T01:23:56.422Z,56.50
2018-02-23T01:26:23.363Z,62.85
2018-02-23T01:28:50.214Z,62.45
2018-02-23T01:31:17.074Z,59.78
2018-02-23T01:33:43.895Z,59.28
2018-02-23T01:36:10.850Z,63.72
2018-02-23T01:38:37.706Z,69.20
2018-02-23T01:41:04.539Z,58.47
2018-02-23T01:43:31.373Z,64.28
2018-02-23T01:45:58.242Z,56.37
2018-02-23T01:48:25.811Z,55.25
2018-02-23T01:50:59.490Z,55.53
2018-02-23T01:53:26.375Z,61.50
2018-02-23T01:55:53.295Z,60.35
2018-02-23T01:58:20.227Z,59.00
2018-02-23T02:00:49.321Z,69.20
2018-02-23T02:03:18.556Z,61.75
2018-02-23T02:05:46.190Z,65.20
2018-02-23T02:08:14.051Z,63.10
2018-02-23T02:10:40.923Z,66.05
2018-02-23T02:13:08.526Z,65.50
2018-02-23T02:15:35.643Z,66.20
2018-02-23T02:18:02.475Z,67.62
2018-02-23T02:20:29.322Z,64.22
2018-02-23T02:22:56.206Z,64.03
2018-02-23T02:25:23.134Z,62.03
2018-02-23T02:27:50.035Z,62.33
2018-02-23T02:30:17.651Z,60.75
2018-02-23T02:32:44.523Z,65.53
2018-02-23T02:35:12.210Z,61.33
2018-02-23T02:37:40.310Z,59.20
2018-02-23T02:40:07.406Z,61.88
2018-02-23T02:42:34.983Z,57.55
2018-02-23T02:45:01.857Z,53.92
2018-02-23T02:47:28.688Z,51.40
2018-02-23T02:49:55.515Z,64.62
2018-02-23T02:52:23.854Z,62.83
2018-02-23T02:54:50.714Z,55.95
2018-02-23T02:57:17.644Z,54.70
2018-02-23T02:59:44.649Z,54.08
2018-02-23T03:02:11.570Z,56.45
2018-02-23T03:04:38.490Z,51.58
2018-02-23T03:07:05.458Z,58.33
2018-02-23T03:09:34.161Z,48.83
2018-02-23T03:12:01.030Z,51.22
2018-02-23T03:14:27.823Z,49.30
2018-02-23T03:16:54.762Z,56.17
2018-02-23T03:19:21.571Z,54.58
2018-02-23T03:21:48.495Z,49.60
2018-02-23T03:24:15.381Z,48.22
2018-02-23T03:26:42.622Z,56.55
2018-02-23T03:29:09.590Z,53.67
2018-02-23T03:31:36.608Z,53.78
2018-02-23T03:34:05.518Z,52.25
2018-02-23T03:36:32.567Z,53.03
2018-02-23T03:38:59.386Z,62.92
2018-02-23T03:41:26.495Z,64.28
2018-02-23T03:43:53.391Z,55.53
2018-02-23T03:46:25.238Z,69.93
2018-02-23T03:48:52.140Z,63.58
2018-02-23T03:51:19.728Z,66.22
2018-02-23T03:53:46.542Z,58.03
2018-02-23T03:56:13.474Z,55.92
2018-02-23T03:58:40.294Z,57.85
2018-02-23T04:01:07.354Z,70.45
2018-02-23T04:03:35.027Z,67.25
2018-02-23T04:06:02.650Z,69.93
2018-02-23T04:08:29.506Z,73.20
2018-02-23T04:10:56.375Z,69.50
2018-02-23T04:13:23.498Z,64.97
2018-02-23T04:15:51.486Z,67.20
2018-02-23T04:18:19.607Z,72.87
2018-02-23T04:20:46.674Z,64.53
2018-02-23T04:23:14.290Z,70.80
2018-02-23T04:25:41.214Z,62.03
2018-02-23T04:28:08.811Z,57.90
2018-02-23T04:30:35.626Z,62.40
2018-02-23T04:33:03.378Z,56.65
2018-02-23T04:35:30.410Z,61.90
2018-02-23T04:37:57.291Z,60.30
2018-02-23T04:40:24.190Z,50.70
2018-02-23T04:42:51.030Z,56.88
2018-02-23T04:45:18.146Z,54.15
2018-02-23T04:47:45.139Z,59.08
2018-02-23T04:50:11.994Z,51.75
2018-02-23T04:52:39.586Z,51.30
2018-02-23T04:55:07.528Z,65.62
2018-02-23T04:57:35.142Z,66.22
2018-02-23T05:00:02.003Z,62.72
2018-02-23T05:02:28.901Z,65.68
2018-02-23T05:04:57.138Z,67.07
2018-02-23T05:07:25.018Z,72.10
2018-02-23T05:09:51.831Z,74.90
2018-02-23T05:12:18.666Z,66.30
2018-02-23T05:14:45.526Z,75.00
2018-02-23T05:17:13.190Z,76.57
2018-02-23T05:19:48.235Z,69.10
2018-02-23T05:22:17.767Z,69.68
2018-02-23T05:24:44.944Z,67.22
2018-02-23T05:27:12.870Z,72.32
2018-02-23T05:29:39.712Z,65.07
2018-02-23T05:32:06.643Z,71.10
2018-02-23T05:34:33.591Z,72.30
2018-02-23T05:37:00.555Z,68.22
2018-02-23T05:39:27.443Z,64.37
2018-02-23T05:41:54.358Z,62.30
2018-02-23T05:44:21.237Z,71.85
2018-02-23T05:46:48.288Z,68.32
2018-02-23T05:49:15.114Z,67.55
2018-02-23T05:51:41.926Z,68.90
2018-02-23T05:54:08.942Z,84.80
2018-02-23T05:56:36.787Z,80.12
2018-02-23T05:59:04.610Z,77.03
2018-02-23T06:01:31.697Z,72.43
2018-02-23T06:03:58.571Z,66.10
2018-02-23T06:06:26.256Z,73.22
2018-02-23T06:08:53.171Z,64.60
2018-02-23T06:11:20.070Z,70.03
2018-02-23T06:13:46.935Z,64.37
2018-02-23T06:16:19.975Z,71.00
2018-02-23T06:18:53.046Z,70.20
2018-02-23T06:21:19.969Z,74.43
2018-02-23T06:23:46.802Z,82.85
2018-02-23T06:26:13.744Z,76.82
2018-02-23T06:28:40.678Z,70.55
2018-02-23T06:31:08.496Z,83.93
2018-02-23T06:33:35.370Z,73.45
2018-02-23T06:36:02.419Z,72.65
2018-02-23T06:38:29.467Z,86.97
2018-02-23T06:40:57.166Z,87.32
2018-02-23T06:43:25.662Z,85.90
2018-02-23T06:45:52.652Z,92.22
2018-02-23T06:48:19.546Z,76.22
2018-02-23T06:50:46.425Z,81.30
2018-02-23T06:53:13.970Z,76.40
2018-02-23T06:55:40.894Z,74.40
2018-02-23T06:58:07.757Z,74.68
2018-02-23T07:00:35.317Z,79.45
2018-02-23T07:03:02.886Z,81.20
2018-02-23T07:05:29.876Z,96.43
2018-02-23T07:07:56.776Z,80.82
2018-02-23T07:10:23.754Z,79.07
2018-02-23T07:12:50.671Z,69.18
2018-02-23T07:15:17.667Z,89.55
2018-02-23T07:17:44.710Z,70.12
2018-02-23T07:20:11.712Z,73.90
2018-02-23T07:22:38.690Z,68.37
2018-02-23T07:25:05.547Z,67.90
2018-02-23T07:27:32.410Z,80.60
2018-02-23T07:29:59.325Z,79.85
2018-02-23T07:32:26.258Z,84.43
2018-02-23T07:34:53.114Z,86.07
2018-02-23T07:37:19.974Z,81.12
2018-02-23T07:39:46.834Z,86.63
2018-02-23T07:42:13.669Z,73.68
2018-02-23T07:44:40.581Z,69.30
2018-02-23T07:47:08.484Z,63.75
2018-02-23T07:49:36.800Z,60.28
2018-02-23T07:52:03.762Z,54.67
2018-02-23T07:54:30.621Z,46.17
2018-02-23T07:56:58.671Z,55.03
2018-02-23T07:59:25.572Z,58.20
2018-02-23T08:01:52.419Z,54.92
2018-02-23T08:04:20.257Z,50.30
2018-02-23T08:06:47.097Z,50.97
2018-02-23T08:09:13.922Z,49.20
2018-02-23T08:11:40.827Z,48.70
2018-02-23T08:14:07.721Z,42.17
2018-02-23T08:16:34.666Z,42.75
2018-02-23T08:19:01.522Z,37.17
2018-02-23T08:21:29.099Z,41.45
2018-02-23T08:23:55.966Z,32.95
2018-02-23T08:26:22.874Z,29.27
2018-02-23T08:28:49.730Z,28.33
2018-02-23T08:31:17.322Z,26.95
2018-02-23T08:33:44.160Z,25.50
2018-02-23T08:36:11.086Z,22.25
2018-02-23T08:38:37.922Z,23.85
2018-02-23T08:41:05.496Z,24.33
2018-02-23T08:43:32.698Z,24.00
2018-02-23T08:46:00.673Z,25.00
2018-02-23T08:48:27.690Z,28.02
2018-02-23T08:50:54.613Z,26.65
2018-02-23T08:53:21.470Z,22.48
2018-02-23T08:55:51.789Z,27.23
2018-02-23T08:58:18.707Z,26.27
2018-02-23T09:00:47.206Z,25.77
2018-02-23T09:03:14.085Z,23.45
2018-02-23T09:05:41.169Z,22.98
2018-02-23T09:08:08.782Z,24.45
2018-02-23T09:10:35.670Z,26.25
2018-02-23T09:13:02.556Z,23.20
2018-02-23T09:15:29.495Z,24.05
2018-02-23T09:17:56.450Z,21.87
2018-02-23T09:20:23.383Z,20.50
2018-02-23T09:22:50.330Z,29.25
2018-02-23T09:25:18.246Z,27.08
2018-02-23T09:27:45.225Z,28.70
2018-02-23T09:30:12.199Z,25.75
2018-02-23T09:32:39.915Z,25.58
2018-02-23T09:35:07.564Z,32.67
2018-02-23T09:37:34.524Z,23.35
2018-02-23T09:40:01.614Z,25.62
2018-02-23T09:42:28.483Z,32.03
2018-02-23T09:44:55.390Z,32.33
2018-02-23T09:47:22.586Z,33.17
2018-02-23T09:49:49.512Z,29.58
2018-02-23T09:52:16.347Z,32.58
2018-02-23T09:54:43.221Z,33.65
2018-02-23T09:57:10.047Z,35.15
2018-02-23T09:59:36.885Z,37.45
2018-02-23T10:02:03.890Z,35.47
2018-02-23T10:04:31.453Z,27.70
2018-02-23T10:06:58.354Z,28.05
2018-02-23T10:09:25.226Z,29.05
2018-02-23T10:11:52.781Z,28.92
2018-02-23T10:14:20.550Z,27.83
2018-02-23T10:16:47.544Z,18.45
2018-02-23T10:19:14.378Z,17.67
2018-02-23T10:21:41.206Z,17.58
2018-02-23T10:24:08.018Z,15.20
2018-02-23T10:26:35.101Z,13.93
2018-02-23T10:29:02.079Z,13.98
2018-02-23T10:31:28.935Z,16.33
2018-02-23T10:33:56.573Z,15.07
2018-02-23T10:36:23.464Z,17.73
2018-02-23T10:38:51.090Z,18.33
2018-02-23T10:41:18.068Z,16.55
2018-02-23T10:43:44.998Z,15.95
2018-02-23T10:46:12.097Z,14.45
2018-02-23T10:48:39.002Z,13.00
2018-02-23T10:51:05.872Z,14.32
2018-02-23T10:53:33.469Z,14.87
2018-02-23T10:56:00.376Z,16.20
2018-02-23T10:58:27.294Z,13.48
2018-02-23T11:00:54.150Z,14.77
2018-02-23T11:03:21.770Z,13.40
2018-02-23T11:05:48.771Z,17.10
2018-02-23T11:08:15.777Z,18.77
2018-02-23T11:10:42.706Z,17.45
2018-02-23T11:13:09.525Z,17.10
2018-02-23T11:15:36.507Z,14.38
2018-02-23T11:18:03.319Z,17.00
2018-02-23T11:20:30.242Z,14.52
2018-02-23T11:22:57.790Z,15.32
2018-02-23T11:25:26.430Z,15.57
2018-02-23T11:27:53.515Z,11.45
2018-02-23T11:30:21.226Z,13.10
2018-02-23T11:32:48.307Z,12.23
2018-02-23T11:35:15.343Z,13.48
2018-02-23T11:37:42.311Z,13.20
2018-02-23T11:40:09.226Z,15.52
2018-02-23T11:42:36.166Z,13.48
2018-02-23T11:45:03.078Z,11.27
2018-02-23T11:47:29.917Z,17.20
2018-02-23T11:49:56.886Z,14.18
2018-02-23T11:52:23.758Z,15.40
2018-02-23T11:54:50.835Z,14.85
2018-02-23T11:57:24.942Z,14.68
2018-02-23T11:59:52.537Z,14.30
2018-02-23T12:02:20.130Z,17.20
2018-02-23T12:04:46.986Z,15.23
2018-02-23T12:07:14.033Z,15.88
2018-02-23T12:09:40.953Z,15.40
2018-02-23T12:12:08.526Z,11.23
2018-02-23T12:14:35.771Z,12.90
2018-02-23T12:17:03.470Z,13.02
2018-02-23T12:19:31.042Z,14.40
2018-02-23T12:21:58.627Z,14.32
2018-02-23T12:24:25.637Z,15.10
2018-02-23T12:26:52.550Z,14.73
2018-02-23T12:29:19.398Z,14.43
2018-02-23T12:31:46.233Z,14.65
2018-02-23T12:34:13.278Z,12.48
2018-02-23T12:36:40.272Z,12.98
2018-02-23T12:39:07.867Z,16.58
2018-02-23T12:41:34.906Z,14.85
2018-02-23T12:44:01.760Z,16.40
2018-02-23T12:46:28.630Z,14.00
2018-02-23T12:48:55.494Z,14.60
2018-02-23T12:51:23.192Z,14.32
2018-02-23T12:53:50.138Z,13.45
2018-02-23T12:56:17.066Z,11.80
2018-02-23T12:58:44.031Z,14.18
2018-02-23T13:01:10.921Z,15.82
2018-02-23T13:03:37.749Z,13.02
2018-02-23T13:06:04.794Z,13.05
2018-02-23T13:08:32.436Z,11.95
2018-02-23T13:10:59.431Z,13.32
2018-02-23T13:13:26.846Z,15.15
2018-02-23T13:15:54.534Z,14.18
2018-02-23T13:18:21.569Z,15.13
2018-02-23T13:20:48.519Z,14.13
2018-02-23T13:23:15.350Z,13.62
2018-02-23T13:25:42.367Z,13.80
2018-02-23T13:28:15.429Z,13.82
2018-02-23T13:30:42.947Z,13.82
2018-02-23T13:33:09.999Z,16.15
2018-02-23T13:35:37.010Z,17.48
2018-02-23T13:38:03.865Z,16.60
2018-02-23T13:40:30.767Z,20.17
2018-02-23T13:42:57.642Z,18.65
2018-02-23T13:45:24.554Z,18.23
2018-02-23T13:47:51.686Z,15.73
2018-02-23T13:50:19.418Z,15.68
2018-02-23T13:52:46.471Z,15.40
2018-02-23T13:55:13.305Z,16.77
2018-02-23T13:57:40.520Z,16.00
2018-02-23T14:00:07.690Z,19.45
2018-02-23T14:02:34.770Z,15.80
2018-02-23T14:05:01.691Z,16.75
2018-02-23T14:07:32.142Z,14.25
2018-02-23T14:09:59.223Z,15.80
2018-02-23T14:12:26.179Z,17.20
2018-02-23T14:14:53.156Z,19.20
2018-02-23T14:17:20.151Z,18.98
2018-02-23T14:19:47.185Z,19.77
2018-02-23T14:22:14.223Z,18.58
2018-02-23T14:24:41.096Z,19.02
2018-02-23T14:27:10.806Z,17.98
2018-02-23T14:29:37.822Z,18.98
2018-02-23T14:32:04.896Z,18.00
2018-02-23T14:34:38.749Z,18.40
2018-02-23T14:37:07.877Z,19.17
2018-02-23T14:39:34.884Z,21.80
2018-02-23T14:42:01.935Z,20.60
2018-02-23T14:44:28.958Z,20.20
2018-02-23T14:46:56.030Z,23.12
2018-02-23T14:49:22.974Z,20.95
2018-02-23T14:51:49.927Z,20.27
2018-02-23T14:54:17.007Z,21.55
2018-02-23T14:56:44.035Z,24.95
2018-02-23T14:59:11.243Z,25.88
2018-02-23T15:01:39.083Z,21.67
2018-02-23T15:04:07.077Z,25.15
2018-02-23T15:06:35.132Z,26.27
2018-02-23T15:09:03.522Z,22.80
2018-02-23T15:11:30.627Z,27.27
2018-02-23T15:13:57.660Z,27.35
2018-02-23T15:16:24.651Z,23.92
2018-02-23T15:18:51.679Z,24.55
2018-02-23T15:21:18.626Z,26.67
2018-02-23T15:23:45.543Z,29.55
2018-02-23T15:26:12.647Z,28.38
2018-02-23T15:28:41.288Z,24.63
2018-02-23T15:31:22.479Z,29.15
2018-02-23T15:33:49.342Z,27.25
2018-02-23T15:36:17.873Z,28.20
2018-02-23T15:38:45.046Z,26.55
2018-02-23T15:41:19.682Z,27.55
2018-02-23T15:43:50.903Z,30.50
2018-02-23T15:46:18.518Z,28.58
2018-02-23T15:48:53.115Z,31.40
2018-02-23T15:54:18.076Z,32.30
2018-02-23T15:56:45.079Z,29.35
2018-02-23T15:59:11.994Z,31.02
2018-02-23T16:01:40.506Z,30.33
2018-02-23T16:04:08.143Z,27.90
2018-02-23T16:06:35.243Z,30.77
2018-02-23T16:09:03.117Z,32.45
2018-02-23T16:11:31.042Z,31.62
2018-02-23T16:13:58.283Z,33.90
2018-02-23T16:16:26.030Z,38.72
2018-02-23T16:18:53.023Z,29.20
2018-02-23T16:21:19.966Z,32.83
2018-02-23T16:23:47.743Z,30.92
2018-02-23T16:26:14.795Z,33.28
2018-02-23T16:28:43.382Z,34.58
2018-02-23T16:31:10.356Z,36.22
2018-02-23T16:33:37.297Z,31.23
2018-02-23T16:36:04.194Z,30.98
2018-02-23T16:38:32.074Z,32.65
2018-02-23T16:40:59.775Z,35.45
2018-02-23T16:43:27.879Z,36.47
2018-02-23T16:45:55.578Z,32.67
2018-02-23T16:48:22.515Z,44.13
2018-02-23T16:50:50.774Z,36.78
2018-02-23T16:53:19.728Z,43.63
2018-02-23T16:55:46.672Z,42.88
2018-02-23T16:58:13.619Z,43.50
2018-02-23T17:00:40.666Z,45.10
2018-02-23T17:03:09.443Z,35.80
2018-02-23T17:05:36.671Z,37.10
2018-02-23T17:08:03.636Z,42.85
2018-02-23T17:10:31.338Z,40.90
2018-02-23T17:12:58.415Z,41.22
2018-02-23T17:15:25.351Z,39.75
2018-02-23T17:17:53.043Z,34.42
2018-02-23T17:20:21.772Z,32.17
2018-02-23T17:22:48.753Z,42.10
2018-02-23T17:25:16.460Z,43.92
2018-02-23T17:27:43.355Z,37.95
2018-02-23T17:30:11.692Z,38.00
2018-02-23T17:32:39.146Z,40.67
2018-02-23T17:35:06.944Z,41.20
2018-02-23T17:37:34.683Z,44.22
2018-02-23T17:40:02.433Z,41.25
2018-02-23T17:42:29.351Z,46.75
2018-02-23T17:44:56.327Z,40.05
2018-02-23T17:47:23.324Z,42.88
2018-02-23T17:49:50.263Z,42.62
2018-02-23T17:52:17.259Z,45.42
2018-02-23T17:54:45.335Z,42.95
2018-02-23T17:57:12.235Z,46.00
2018-02-23T17:59:39.914Z,50.97
2018-02-23T18:02:07.695Z,40.00
2018-02-23T18:04:41.322Z,46.78
2018-02-23T18:07:08.316Z,48.13
2018-02-23T18:09:37.363Z,44.38
2018-02-23T18:12:04.355Z,50.28
2018-02-23T18:14:31.278Z,45.97
2018-02-23T18:17:00.084Z,46.90
2018-02-23T18:19:28.520Z,47.60
2018-02-23T18:21:55.605Z,43.13
2018-02-23T18:24:22.696Z,39.97
2018-02-23T18:26:50.961Z,49.20
2018-02-23T18:29:18.538Z,39.63
2018-02-23T18:31:45.459Z,49.67
2018-02-23T18:34:13.472Z,52.38
2018-02-23T18:36:41.560Z,51.15
2018-02-23T18:39:09.371Z,49.17
2018-02-23T18:41:37.194Z,44.08
2018-02-23T18:44:04.171Z,44.10
2018-02-23T18:46:31.203Z,40.03
2018-02-23T18:49:01.128Z,46.15
2018-02-23T18:51:28.697Z,46.17
2018-02-23T18:53:58.301Z,42.62
2018-02-23T18:56:25.288Z,45.53
2018-02-23T18:58:52.465Z,46.42
2018-02-23T19:01:21.000Z,42.00
2018-02-23T19:03:50.930Z,48.72
2018-02-23T19:06:17.945Z,53.72
2018-02-23T19:08:47.471Z,50.70
2018-02-23T19:11:15.212Z,49.45
2018-02-23T19:13:42.987Z,48.35
2018-02-23T19:16:10.739Z,49.10
2018-02-23T19:18:37.718Z,47.53
2018-02-23T19:21:04.654Z,44.97
2018-02-23T19:23:31.706Z,43.97
2018-02-23T19:25:58.567Z,47.33
2018-02-23T19:28:25.538Z,51.35
2018-02-23T19:30:52.413Z,46.55
2018-02-23T19:33:19.350Z,47.08
2018-02-23T19:35:46.412Z,44.47
2018-02-23T19:38:14.005Z,51.28
2018-02-23T19:40:40.970Z,41.53
2018-02-23T19:43:07.955Z,52.00
2018-02-23T19:45:35.812Z,53.63
2018-02-23T19:48:02.826Z,42.80
2018-02-23T19:50:29.858Z,55.88
2018-02-23T19:52:56.787Z,49.25
2018-02-23T19:55:23.682Z,54.05
2018-02-23T19:57:50.675Z,62.60
2018-02-23T20:00:17.666Z,44.63
2018-02-23T20:02:45.354Z,51.97
2018-02-23T20:05:12.198Z,47.28
2018-02-23T20:07:39.963Z,43.75
2018-02-23T20:10:06.946Z,52.67
2018-02-23T20:12:33.903Z,56.42
2018-02-23T20:15:01.813Z,51.22
2018-02-23T20:17:30.995Z,52.38
2018-02-23T20:19:58.698Z,50.80
2018-02-23T20:22:26.447Z,53.40
2018-02-23T20:24:53.349Z,57.62
2018-02-23T20:27:21.093Z,55.20
2018-02-23T20:29:48.014Z,49.15
2018-02-23T20:32:15.701Z,48.63
2018-02-23T20:34:42.841Z,51.37
2018-02-23T20:37:09.954Z,49.78
2018-02-23T20:39:36.834Z,50.22
2018-02-23T20:42:03.878Z,54.53
2018-02-23T20:44:30.866Z,55.65
2018-02-23T20:46:57.906Z,46.37
2018-02-23T20:49:25.662Z,48.38
2018-02-23T20:51:52.622Z,50.25
2018-02-23T20:54:19.610Z,56.28
2018-02-23T20:56:46.475Z,51.45
2018-02-23T20:59:13.437Z,52.17
2018-02-23T21:01:41.149Z,55.15
2018-02-23T21:04:08.904Z,59.08
2018-02-23T21:06:35.986Z,55.00
2018-02-23T21:09:02.943Z,64.78
2018-02-23T21:11:29.806Z,51.60
2018-02-23T21:13:56.662Z,66.40
2018-02-23T21:16:23.678Z,69.93
2018-02-23T21:18:50.613Z,64.80
2018-02-23T21:21:18.294Z,53.58
2018-02-23T21:23:45.286Z,59.47
2018-02-23T21:26:12.886Z,57.72
2018-02-23T21:28:39.834Z,60.50
2018-02-23T21:31:06.727Z,55.88
2018-02-23T21:33:33.655Z,58.45
2018-02-23T21:36:01.690Z,59.72
2018-02-23T21:38:28.742Z,67.93
2018-02-23T21:40:55.598Z,60.88
2018-02-23T21:43:22.559Z,69.70
2018-02-23T21:45:49.547Z,62.30
2018-02-23T21:48:16.468Z,69.15
2018-02-23T21:50:43.330Z,62.00
2018-02-23T21:53:11.249Z,64.53
2018-02-23T21:55:38.269Z,61.50
2018-02-23T21:58:05.298Z,74.12
2018-02-23T22:00:32.143Z,66.37
2018-02-23T22:02:59.950Z,69.57
2018-02-23T22:05:27.011Z,60.70
2018-02-23T22:07:54.159Z,72.50
2018-02-23T22:10:21.098Z,64.10
2018-02-23T22:12:48.103Z,65.22
2018-02-23T22:15:14.954Z,66.45
2018-02-23T22:17:42.676Z,69.72
2018-02-23T22:20:09.747Z,58.70
2018-02-23T22:22:36.894Z,59.90
2018-02-23T22:25:03.790Z,66.57
2018-02-23T22:27:31.551Z,70.65
2018-02-23T22:29:58.521Z,51.92
2018-02-23T22:32:26.186Z,59.17
2018-02-23T22:34:53.918Z,54.50
2018-02-23T22:37:20.930Z,52.67
2018-02-23T22:39:49.094Z,57.33
2018-02-23T22:42:16.782Z,54.58
2018-02-23T22:44:43.662Z,53.67
2018-02-23T22:47:11.579Z,57.50
2018-02-23T22:49:38.666Z,56.10
2018-02-23T22:52:05.645Z,53.80
2018-02-23T22:54:32.595Z,51.67
2018-02-23T22:56:59.504Z,54.30
2018-02-23T22:59:26.475Z,44.20
2018-02-23T23:01:54.098Z,50.60
2018-02-23T23:04:21.219Z,52.90
2018-02-23T23:06:48.902Z,58.28
2018-02-23T23:09:15.791Z,55.47
2018-02-23T23:11:42.618Z,53.80
2018-02-23T23:14:09.598Z,64.20
2018-02-23T23:16:36.616Z,52.42
2018-02-23T23:19:03.522Z,53.92
2018-02-23T23:21:30.355Z,53.80
2018-02-23T23:23:57.410Z,54.00
2018-02-23T23:26:24.382Z,57.72
2018-02-23T23:28:52.083Z,52.03
2018-02-23T23:31:19.750Z,54.78
2018-02-23T23:33:46.750Z,65.60
2018-02-23T23:36:13.666Z,63.15
2018-02-23T23:38:40.710Z,54.92
2018-02-23T23:41:07.655Z,61.15
2018-02-23T23:43:34.746Z,55.22
2018-02-23T23:46:01.681Z,56.30
2018-02-23T23:48:28.533Z,59.20
2018-02-23T23:50:55.518Z,61.05
2018-02-23T23:53:22.594Z,54.67
2018-02-23T23:55:49.671Z,67.28
2018-02-23T23:58:17.278Z,63.45
